Time;durP1;ratioP1;P1;durP2;ratioP2;P2;SDS_P1;SDS_P2;PMS_P1;PMS_P2;Temp;Humidity;BMP_temperature;BMP_pressure;BME280_temperature;BME280_humidity;BME280_pressure;Samples;Min_cycle;Max_cycle;Signal;HPM_P1;HPM_P2
2023/03/14 00:00:51;;;;;;;;;;;3.10;99.90;;;;;;5033775;28;20324;-76
2023/03/14 00:03:16;;;;;;;;;;;3.00;99.90;;;;;;5033640;28;19914;-76
2023/03/14 00:05:42;;;;;;;;;;;3.00;99.90;;;;;;5033755;28;19921;-76
2023/03/14 00:08:07;;;;;;;;;;;3.00;99.90;;;;;;5033744;28;20015;-76
2023/03/14 00:10:35;;;;;;;;;;;3.00;99.90;;;;;;5033610;28;19913;-76
2023/03/14 00:13:00;;;;;;;;;;;3.00;99.90;;;;;;5016028;28;19971;-76
2023/03/14 00:15:26;;;;;;;;;;;3.00;99.90;;;;;;5033672;28;20316;-76
2023/03/14 00:17:51;;;;;;;;;;;3.00;99.90;;;;;;5033383;28;20396;-76
2023/03/14 00:20:17;;;;;;;;;;;3.00;99.90;;;;;;5016199;28;20292;-76
2023/03/14 00:22:43;;;;;;;;;;;3.00;99.90;;;;;;5033656;28;19963;-76
2023/03/14 00:25:09;;;;;;;;;;;3.00;99.90;;;;;;5033611;28;20301;-76
2023/03/14 00:27:36;;;;;;;;;;;3.00;99.90;;;;;;5016054;28;20040;-76
2023/03/14 00:30:01;;;;;;;;;;;3.00;99.90;;;;;;5033545;28;19972;-76
2023/03/14 00:32:27;;;;;;;;;;;3.00;99.90;;;;;;5033318;28;20293;-76
2023/03/14 00:34:52;;;;;;;;;;;3.10;99.90;;;;;;5033558;28;19913;-76
2023/03/14 00:37:18;;;;;;;;;;;3.10;99.90;;;;;;5033119;28;19914;-76
2023/03/14 00:39:44;;;;;;;;;;;3.10;99.90;;;;;;5047957;28;19913;-76
2023/03/14 00:42:09;;;;;;;;;;;3.10;99.90;;;;;;5032616;28;19913;-76
2023/03/14 00:44:35;;;;;;;;;;;3.10;99.90;;;;;;5032758;28;19999;-76
2023/03/14 00:47:00;;;;;;;;;;;3.20;99.90;;;;;;5032414;28;20385;-76
2023/03/14 00:49:26;;;;;;;;;;;3.10;99.90;;;;;;5032421;28;19921;-76
2023/03/14 00:51:52;;;;;;;;;;;3.10;99.90;;;;;;5032433;28;19909;-76
2023/03/14 00:54:18;;;;;;;;;;;3.10;99.90;;;;;;5050585;28;19914;-76
2023/03/14 00:56:44;;;;;;;;;;;3.20;99.90;;;;;;5035748;28;19909;-77
2023/03/14 00:59:09;;;;;;;;;;;3.20;99.90;;;;;;5016713;28;20424;-76
2023/03/14 01:01:35;;;;;;;;;;;3.30;99.90;;;;;;5015809;28;19910;-76
2023/03/14 01:04:01;;;;;;;;;;;3.30;99.90;;;;;;5016241;28;19917;-76
2023/03/14 01:06:28;;;;;;;;;;;3.30;99.90;;;;;;5015966;28;19914;-76
2023/03/14 01:08:54;;;;;;;;;;;3.40;99.90;;;;;;5015799;28;19916;-76
2023/03/14 01:11:25;;;;;;;;;;;3.30;99.90;;;;;;4998197;28;19921;-76
2023/03/14 01:13:50;;;;;;;;;;;3.30;99.90;;;;;;5016283;28;20005;-76
2023/03/14 01:16:16;;;;;;;;;;;3.30;99.90;;;;;;5015562;28;19960;-78
2023/03/14 01:18:43;;;;;;;;;;;3.20;99.90;;;;;;5015701;28;20043;-76
2023/03/14 01:21:10;;;;;;;;;;;3.20;99.90;;;;;;5015730;28;20388;-76
2023/03/14 01:23:35;;;;;;;;;;;3.10;99.90;;;;;;5015701;28;19968;-76
2023/03/14 01:26:01;;;;;;;;;;;3.10;99.90;;;;;;5015542;28;20336;-76
2023/03/14 01:28:27;;;;;;;;;;;3.20;99.90;;;;;;5015533;28;19909;-76
2023/03/14 01:30:52;;;;;;;;;;;3.20;99.90;;;;;;5015492;28;20266;-76
2023/03/14 01:33:18;;;;;;;;;;;3.20;99.90;;;;;;5015345;28;20378;-76
2023/03/14 01:35:43;;;;;;;;;;;3.20;99.90;;;;;;5015600;28;19910;-75
2023/03/14 01:38:09;;;;;;;;;;;3.20;99.90;;;;;;4951031;28;1852306;-76
2023/03/14 01:40:41;;;;;;;;;;;3.20;99.90;;;;;;4999352;28;19913;-76
2023/03/14 01:43:12;;;;;;;;;;;3.10;99.90;;;;;;5016824;28;19917;-76
2023/03/14 01:45:56;;;;;;;;;;;3.10;99.90;;;;;;5016485;28;19909;-75
2023/03/14 01:48:22;;;;;;;;;;;3.10;99.90;;;;;;5016236;28;20004;-76
2023/03/14 01:50:48;;;;;;;;;;;3.10;99.90;;;;;;5016548;28;20008;-76
2023/03/14 01:53:14;;;;;;;;;;;3.10;99.90;;;;;;5016375;28;19950;-76
2023/03/14 01:55:40;;;;;;;;;;;3.10;99.90;;;;;;5016366;28;20389;-76
2023/03/14 01:58:06;;;;;;;;;;;3.10;99.90;;;;;;5016171;28;19913;-76
2023/03/14 02:00:31;;;;;;;;;;;3.10;99.90;;;;;;5016155;28;19918;-76
2023/03/14 02:03:04;;;;;;;;;;;3.20;99.90;;;;;;5015963;28;20347;-76
2023/03/14 02:05:34;;;;;;;;;;;3.20;99.90;;;;;;5016065;28;19917;-76
2023/03/14 02:08:01;;;;;;;;;;;3.20;99.90;;;;;;4998721;28;19943;-76
2023/03/14 02:10:32;;;;;;;;;;;3.30;99.90;;;;;;5016243;28;19914;-76
2023/03/14 02:12:59;;;;;;;;;;;3.30;99.90;;;;;;5016264;28;19936;-76
2023/03/14 02:15:25;;;;;;;;;;;3.40;99.90;;;;;;5015910;28;19909;-76
2023/03/14 02:17:51;;;;;;;;;;;3.40;99.90;;;;;;5015895;28;20309;-76
2023/03/14 02:20:22;;;;;;;;;;;3.40;99.90;;;;;;4998317;28;20360;-76
2023/03/14 02:22:48;;;;;;;;;;;3.40;99.90;;;;;;5015860;28;19909;-76
2023/03/14 02:25:17;;;;;;;;;;;3.40;99.90;;;;;;5015699;28;20092;-76
2023/03/14 02:27:43;;;;;;;;;;;3.40;99.90;;;;;;5022831;28;19909;-76
2023/03/14 02:30:14;;;;;;;;;;;3.50;99.90;;;;;;5050643;28;20365;-76
2023/03/14 02:32:42;;;;;;;;;;;3.50;99.90;;;;;;5035317;28;19909;-76
2023/03/14 02:35:10;;;;;;;;;;;3.60;99.90;;;;;;5035566;28;19916;-76
2023/03/14 02:37:40;;;;;;;;;;;3.70;99.90;;;;;;5035125;28;19917;-76
2023/03/14 02:40:07;;;;;;;;;;;3.70;99.90;;;;;;5035531;28;20002;-76
2023/03/14 02:42:32;;;;;;;;;;;3.80;99.90;;;;;;5035162;28;19916;-76
2023/03/14 02:44:59;;;;;;;;;;;3.90;99.90;;;;;;5049999;28;19914;-76
2023/03/14 02:47:29;;;;;;;;;;;3.90;99.90;;;;;;5034765;28;19909;-76
2023/03/14 02:49:57;;;;;;;;;;;4.00;99.90;;;;;;5035232;28;20364;-76
2023/03/14 02:52:23;;;;;;;;;;;4.00;99.90;;;;;;5034942;28;19949;-76
2023/03/14 02:54:48;;;;;;;;;;;4.10;99.90;;;;;;5035224;28;19959;-76
2023/03/14 02:57:14;;;;;;;;;;;4.10;99.90;;;;;;5034820;28;19959;-76
2023/03/14 02:59:39;;;;;;;;;;;4.10;99.90;;;;;;5034849;28;19913;-76
2023/03/14 03:02:05;;;;;;;;;;;4.10;99.90;;;;;;5034561;28;19919;-76
2023/03/14 03:04:30;;;;;;;;;;;4.20;99.90;;;;;;5034789;28;19956;-76
2023/03/14 03:06:56;;;;;;;;;;;4.20;99.90;;;;;;5034639;28;19920;-76
2023/03/14 03:09:21;;;;;;;;;;;4.20;99.90;;;;;;5049984;28;20365;-77
2023/03/14 03:11:47;;;;;;;;;;;4.30;99.90;;;;;;5035141;28;19913;-76
2023/03/14 03:14:13;;;;;;;;;;;4.30;99.90;;;;;;5035192;28;20346;-76
2023/03/14 03:16:38;;;;;;;;;;;4.40;99.90;;;;;;5033752;28;20330;-77
2023/03/14 03:19:04;;;;;;;;;;;4.40;99.90;;;;;;5034745;28;20388;-76
2023/03/14 03:21:29;;;;;;;;;;;4.40;99.90;;;;;;5034465;28;20297;-76
2023/03/14 03:23:55;;;;;;;;;;;4.40;99.90;;;;;;5049759;28;20384;-77
2023/03/14 03:26:20;;;;;;;;;;;4.40;99.90;;;;;;5033979;28;20312;-76
2023/03/14 03:28:46;;;;;;;;;;;4.50;99.90;;;;;;5034234;28;20293;-76
2023/03/14 03:31:11;;;;;;;;;;;4.50;99.90;;;;;;5034533;28;20271;-76
2023/03/14 03:33:38;;;;;;;;;;;4.60;99.90;;;;;;5034106;28;19913;-76
2023/03/14 03:36:03;;;;;;;;;;;4.60;99.90;;;;;;5049581;28;20361;-76
2023/03/14 03:38:29;;;;;;;;;;;4.60;99.90;;;;;;5033979;28;19921;-76
2023/03/14 03:40:54;;;;;;;;;;;4.60;99.90;;;;;;5034736;28;20409;-76
2023/03/14 03:43:20;;;;;;;;;;;4.60;99.90;;;;;;5034135;28;20293;-76
2023/03/14 03:45:45;;;;;;;;;;;4.50;99.90;;;;;;5034039;28;20440;-76
2023/03/14 03:48:11;;;;;;;;;;;4.50;99.90;;;;;;5033835;28;19917;-76
2023/03/14 03:50:37;;;;;;;;;;;4.50;99.90;;;;;;5033907;28;19984;-76
2023/03/14 03:53:02;;;;;;;;;;;4.40;99.90;;;;;;5033976;28;19920;-76
2023/03/14 03:55:28;;;;;;;;;;;4.40;99.90;;;;;;5033905;28;19932;-76
2023/03/14 03:57:54;;;;;;;;;;;4.40;99.90;;;;;;5033793;28;19947;-76
2023/03/14 04:00:19;;;;;;;;;;;4.40;99.90;;;;;;5016129;28;19913;-76
2023/03/14 04:02:45;;;;;;;;;;;4.40;99.90;;;;;;5033814;28;19914;-76
2023/03/14 04:05:10;;;;;;;;;;;4.40;99.90;;;;;;5016100;28;19913;-76
2023/03/14 04:07:36;;;;;;;;;;;4.40;99.90;;;;;;5033716;28;19920;-76
2023/03/14 04:10:02;;;;;;;;;;;4.50;99.90;;;;;;5033710;28;20003;-76
2023/03/14 04:12:27;;;;;;;;;;;4.50;99.90;;;;;;5033725;28;20000;-76
2023/03/14 04:14:53;;;;;;;;;;;4.50;99.90;;;;;;5015978;28;20004;-76
2023/03/14 04:17:18;;;;;;;;;;;4.50;99.90;;;;;;5033418;28;19913;-76
2023/03/14 04:19:44;;;;;;;;;;;4.60;99.90;;;;;;5016243;28;19959;-77
2023/03/14 04:22:09;;;;;;;;;;;4.60;99.90;;;;;;5033557;28;19921;-77
2023/03/14 04:24:35;;;;;;;;;;;4.60;99.90;;;;;;5033855;28;19917;-77
2023/03/14 04:27:00;;;;;;;;;;;4.70;99.90;;;;;;5033326;28;19920;-78
2023/03/14 04:29:26;;;;;;;;;;;4.70;99.90;;;;;;5037286;28;19916;-77
2023/03/14 04:31:51;;;;;;;;;;;4.80;99.90;;;;;;5038139;28;20437;-78
2023/03/14 04:34:17;;;;;;;;;;;4.90;99.90;;;;;;5039042;28;20269;-78
2023/03/14 04:36:43;;;;;;;;;;;5.00;99.90;;;;;;5038243;28;19917;-79
2023/03/14 04:39:08;;;;;;;;;;;5.00;99.90;;;;;;5038886;28;19943;-80
2023/03/14 04:41:34;;;;;;;;;;;5.00;99.90;;;;;;5020496;28;19914;-78
2023/03/14 04:43:59;;;;;;;;;;;5.00;99.90;;;;;;5022583;28;19913;-78
2023/03/14 04:46:25;;;;;;;;;;;5.00;99.90;;;;;;5018661;28;19936;-78
2023/03/14 04:48:50;;;;;;;;;;;5.00;99.90;;;;;;5018269;28;19917;-78
2023/03/14 04:51:16;;;;;;;;;;;5.00;99.90;;;;;;5018819;28;19971;-78
2023/03/14 04:53:42;;;;;;;;;;;5.00;99.90;;;;;;5019086;28;19941;-79
2023/03/14 04:56:07;;;;;;;;;;;4.90;99.90;;;;;;5017783;28;19973;-79
2023/03/14 04:58:33;;;;;;;;;;;4.90;99.90;;;;;;5035949;28;19913;-78
2023/03/14 05:01:03;;;;;;;;;;;4.90;99.90;;;;;;5038619;28;20011;-78
2023/03/14 05:03:29;;;;;;;;;;;4.90;99.90;;;;;;5038528;28;19913;-78
2023/03/14 05:05:55;;;;;;;;;;;4.90;99.90;;;;;;5038376;28;19910;-78
2023/03/14 05:08:20;;;;;;;;;;;4.90;99.90;;;;;;5038625;28;20393;-78
2023/03/14 05:10:51;;;;;;;;;;;4.90;99.90;;;;;;5038177;28;19971;-78
2023/03/14 05:13:17;;;;;;;;;;;4.90;99.90;;;;;;5037448;28;19909;-78
2023/03/14 05:15:42;;;;;;;;;;;4.90;99.90;;;;;;5038335;28;19920;-78
2023/03/14 05:18:08;;;;;;;;;;;4.90;99.90;;;;;;5019603;28;19921;-78
2023/03/14 05:20:33;;;;;;;;;;;5.00;99.90;;;;;;5037389;28;19914;-78
2023/03/14 05:22:59;;;;;;;;;;;5.00;99.90;;;;;;5019423;28;19964;-77
2023/03/14 05:25:24;;;;;;;;;;;5.00;99.90;;;;;;5019183;28;19913;-77
2023/03/14 05:27:52;;;;;;;;;;;5.00;99.90;;;;;;5036762;28;19914;-77
2023/03/14 05:30:18;;;;;;;;;;;5.00;99.90;;;;;;5036953;28;19920;-77
2023/03/14 05:32:44;;;;;;;;;;;5.00;99.90;;;;;;5036794;28;19913;-78
2023/03/14 05:35:09;;;;;;;;;;;5.00;99.90;;;;;;5038002;28;19913;-78
2023/03/14 05:37:35;;;;;;;;;;;5.00;99.90;;;;;;5020001;28;19928;-78
2023/03/14 05:40:00;;;;;;;;;;;5.00;99.90;;;;;;5037584;28;19963;-78
2023/03/14 05:42:26;;;;;;;;;;;5.00;99.90;;;;;;5037522;28;19913;-78
2023/03/14 05:44:51;;;;;;;;;;;5.10;99.90;;;;;;5037280;28;19921;-78
2023/03/14 05:47:17;;;;;;;;;;;5.20;99.90;;;;;;5037086;28;19970;-78
2023/03/14 05:49:42;;;;;;;;;;;5.20;99.90;;;;;;5037412;28;19917;-78
2023/03/14 05:52:08;;;;;;;;;;;5.20;99.90;;;;;;5037734;28;19914;-78
2023/03/14 05:54:34;;;;;;;;;;;5.20;99.90;;;;;;5019658;28;19913;-78
2023/03/14 05:56:59;;;;;;;;;;;5.20;99.90;;;;;;5036842;28;19920;-78
2023/03/14 05:59:25;;;;;;;;;;;5.20;99.90;;;;;;5036804;28;19910;-77
2023/03/14 06:01:50;;;;;;;;;;;5.20;99.90;;;;;;5035982;28;19913;-77
2023/03/14 06:04:16;;;;;;;;;;;5.20;99.90;;;;;;5035803;28;20017;-77
2023/03/14 06:06:41;;;;;;;;;;;5.20;99.90;;;;;;5036234;28;19989;-77
2023/03/14 06:09:07;;;;;;;;;;;5.20;99.90;;;;;;5036015;28;20292;-76
2023/03/14 06:11:32;;;;;;;;;;;5.20;99.90;;;;;;5038924;28;19913;-79
2023/03/14 06:13:58;;;;;;;;;;;5.20;99.90;;;;;;5048210;28;20254;-79
2023/03/14 06:16:23;;;;;;;;;;;5.20;99.90;;;;;;5046933;28;19920;-79
2023/03/14 06:18:49;;;;;;;;;;;5.20;99.90;;;;;;5028781;28;19967;-78
2023/03/14 06:21:15;;;;;;;;;;;5.10;99.90;;;;;;5029601;28;19909;-80
2023/03/14 06:23:40;;;;;;;;;;;5.20;99.90;;;;;;5015450;28;19925;-79
2023/03/14 06:26:06;;;;;;;;;;;5.20;99.90;;;;;;5031889;28;19921;-78
2023/03/14 06:28:32;;;;;;;;;;;5.20;99.90;;;;;;5014812;28;19914;-80
2023/03/14 06:30:58;;;;;;;;;;;5.20;99.90;;;;;;5030746;28;19917;-79
2023/03/14 06:33:24;;;;;;;;;;;5.20;99.90;;;;;;5047666;28;19909;-79
2023/03/14 06:35:49;;;;;;;;;;;5.20;99.90;;;;;;5064380;28;20020;-79
2023/03/14 06:38:15;;;;;;;;;;;5.20;99.90;;;;;;5050536;28;19928;-79
2023/03/14 06:40:40;;;;;;;;;;;5.10;99.90;;;;;;5049742;28;20011;-79
2023/03/14 06:43:06;;;;;;;;;;;5.20;99.90;;;;;;5050316;28;19955;-78
2023/03/14 06:45:32;;;;;;;;;;;5.10;99.90;;;;;;5031917;28;19913;-78
2023/03/14 06:47:57;;;;;;;;;;;5.20;99.90;;;;;;5049219;28;19947;-78
2023/03/14 06:50:23;;;;;;;;;;;5.20;99.90;;;;;;5057066;28;19918;-79
2023/03/14 06:52:48;;;;;;;;;;;5.20;99.90;;;;;;5041175;28;19916;-80
2023/03/14 06:55:15;;;;;;;;;;;5.10;99.90;;;;;;5040619;28;19920;-79
2023/03/14 06:57:41;;;;;;;;;;;5.20;99.90;;;;;;5052095;28;20004;-79
2023/03/14 07:00:07;;;;;;;;;;;5.20;99.90;;;;;;5023196;28;19913;-78
2023/03/14 07:02:33;;;;;;;;;;;5.20;99.90;;;;;;5022915;28;19909;-79
2023/03/14 07:04:59;;;;;;;;;;;5.20;99.90;;;;;;5022697;28;19935;-79
2023/03/14 07:07:24;;;;;;;;;;;5.20;99.90;;;;;;5022845;28;19921;-79
2023/03/14 07:09:50;;;;;;;;;;;5.20;99.90;;;;;;5041797;28;19923;-80
2023/03/14 07:12:15;;;;;;;;;;;5.20;99.90;;;;;;5040060;28;19995;-79
2023/03/14 07:14:41;;;;;;;;;;;5.20;99.90;;;;;;5021548;28;20290;-79
2023/03/14 07:17:06;;;;;;;;;;;5.20;99.90;;;;;;5038993;28;19924;-79
2023/03/14 07:19:32;;;;;;;;;;;5.30;99.90;;;;;;5020711;28;19952;-80
2023/03/14 07:21:57;;;;;;;;;;;5.20;99.90;;;;;;5039490;28;19913;-79
2023/03/14 07:24:23;;;;;;;;;;;5.30;99.90;;;;;;5021650;28;19920;-80
2023/03/14 07:26:48;;;;;;;;;;;5.30;99.90;;;;;;5038740;28;19913;-79
2023/03/14 07:29:14;;;;;;;;;;;5.30;99.90;;;;;;5022080;28;20008;-79
2023/03/14 07:31:40;;;;;;;;;;;5.30;99.90;;;;;;5040959;28;19921;-78
2023/03/14 07:34:05;;;;;;;;;;;5.30;99.90;;;;;;5023985;28;19925;-78
2023/03/14 07:36:31;;;;;;;;;;;5.30;99.90;;;;;;5042767;28;19913;-79
2023/03/14 07:38:56;;;;;;;;;;;5.30;99.90;;;;;;5043096;28;19921;-78
2023/03/14 07:41:22;;;;;;;;;;;5.30;99.90;;;;;;5026092;28;19921;-79
2023/03/14 07:43:48;;;;;;;;;;;5.30;99.90;;;;;;5026384;28;19985;-79
2023/03/14 07:46:14;;;;;;;;;;;5.30;99.90;;;;;;5044151;28;19932;-79
2023/03/14 07:48:40;;;;;;;;;;;5.30;99.90;;;;;;5024629;28;19913;-78
2023/03/14 07:51:06;;;;;;;;;;;5.30;99.90;;;;;;5025814;28;20348;-78
2023/03/14 07:53:31;;;;;;;;;;;5.30;99.90;;;;;;5042975;28;20427;-79
2023/03/14 07:55:57;;;;;;;;;;;5.40;99.90;;;;;;5043065;28;19913;-79
2023/03/14 07:58:23;;;;;;;;;;;5.40;99.90;;;;;;5024774;28;19913;-79
2023/03/14 08:00:48;;;;;;;;;;;5.40;99.90;;;;;;5041613;28;20004;-78
2023/03/14 08:03:14;;;;;;;;;;;5.40;99.90;;;;;;5023250;28;20317;-78
2023/03/14 08:05:40;;;;;;;;;;;5.40;99.90;;;;;;5056440;28;19955;-78
2023/03/14 08:08:06;;;;;;;;;;;5.40;99.90;;;;;;5040884;28;19921;-78
2023/03/14 08:10:32;;;;;;;;;;;5.40;99.90;;;;;;5023855;28;19972;-78
2023/03/14 08:13:00;;;;;;;;;;;5.40;99.90;;;;;;5056432;28;20269;-78
2023/03/14 08:15:26;;;;;;;;;;;5.50;99.90;;;;;;5057214;28;20357;-78
2023/03/14 08:17:53;;;;;;;;;;;5.50;99.90;;;;;;5056857;28;19928;-78
2023/03/14 08:20:22;;;;;;;;;;;5.60;99.90;;;;;;5042250;28;19952;-78
2023/03/14 08:22:48;;;;;;;;;;;5.60;99.90;;;;;;5042731;28;19915;-79
2023/03/14 08:25:14;;;;;;;;;;;5.60;99.90;;;;;;5058598;28;20349;-78
2023/03/14 08:27:41;;;;;;;;;;;5.60;99.90;;;;;;5024254;28;19953;-79
2023/03/14 08:30:08;;;;;;;;;;;5.70;99.90;;;;;;5056664;28;19924;-79
2023/03/14 08:32:34;;;;;;;;;;;5.70;99.90;;;;;;5041863;28;19909;-79
2023/03/14 08:35:00;;;;;;;;;;;5.70;99.90;;;;;;5042572;28;19959;-78
2023/03/14 08:37:26;;;;;;;;;;;5.70;99.90;;;;;;5042530;28;19914;-79
2023/03/14 08:39:51;;;;;;;;;;;5.70;99.90;;;;;;5058110;28;19925;-79
2023/03/14 08:42:17;;;;;;;;;;;5.70;99.90;;;;;;5042324;28;20345;-78
2023/03/14 08:44:43;;;;;;;;;;;5.70;99.90;;;;;;5042683;28;19909;-79
2023/03/14 08:47:08;;;;;;;;;;;5.80;99.90;;;;;;5042798;28;20278;-78
2023/03/14 08:49:34;;;;;;;;;;;5.80;99.90;;;;;;5041259;28;19913;-78
2023/03/14 08:52:01;;;;;;;;;;;5.80;99.90;;;;;;5056711;28;19913;-78
2023/03/14 08:54:26;;;;;;;;;;;5.90;99.90;;;;;;5041136;28;19916;-78
2023/03/14 08:56:52;;;;;;;;;;;5.90;99.90;;;;;;5057742;28;20349;-79
2023/03/14 08:59:18;;;;;;;;;;;6.00;99.90;;;;;;5024682;28;20258;-78
2023/03/14 09:01:43;;;;;;;;;;;6.00;99.90;;;;;;5025017;28;19913;-78
2023/03/14 09:04:09;;;;;;;;;;;6.00;99.90;;;;;;5007890;28;19964;-79
2023/03/14 09:06:35;;;;;;;;;;;6.00;99.90;;;;;;5024659;28;19913;-79
2023/03/14 09:09:01;;;;;;;;;;;5.90;99.90;;;;;;5024185;28;20051;-79
2023/03/14 09:11:26;;;;;;;;;;;5.90;99.90;;;;;;5022222;28;19960;-78
2023/03/14 09:13:52;;;;;;;;;;;5.90;99.90;;;;;;5024123;28;19917;-79
2023/03/14 09:16:17;;;;;;;;;;;6.00;99.90;;;;;;5045301;28;19913;-78
2023/03/14 09:18:43;;;;;;;;;;;6.00;99.90;;;;;;5044883;28;19913;-78
2023/03/14 09:21:09;;;;;;;;;;;6.00;99.90;;;;;;5045279;28;19920;-79
2023/03/14 09:23:34;;;;;;;;;;;6.00;99.90;;;;;;5044842;28;19909;-79
2023/03/14 09:26:00;;;;;;;;;;;6.00;99.90;;;;;;5044931;28;19913;-79
2023/03/14 09:28:26;;;;;;;;;;;6.00;99.90;;;;;;5044320;28;19932;-78
2023/03/14 09:30:51;;;;;;;;;;;6.00;99.90;;;;;;5027302;28;19921;-79
2023/03/14 09:33:17;;;;;;;;;;;6.00;99.90;;;;;;5026256;28;20266;-80
2023/03/14 09:35:43;;;;;;;;;;;6.00;99.90;;;;;;5043828;28;19909;-79
2023/03/14 09:38:08;;;;;;;;;;;6.00;99.90;;;;;;5044771;28;19928;-79
2023/03/14 09:40:35;;;;;;;;;;;6.00;99.90;;;;;;5043150;28;19913;-79
2023/03/14 09:43:01;;;;;;;;;;;6.00;99.90;;;;;;5023570;28;19910;-79
2023/03/14 09:45:36;;;;;;;;;;;6.10;99.90;;;;;;5025438;28;19913;-78
2023/03/14 09:48:02;;;;;;;;;;;6.10;99.90;;;;;;5042010;28;19913;-79
2023/03/14 09:50:36;;;;;;;;;;;6.00;99.90;;;;;;5041989;28;20365;-79
2023/03/14 09:53:03;;;;;;;;;;;6.00;99.90;;;;;;5042155;28;20347;-79
2023/03/14 09:55:29;;;;;;;;;;;5.90;99.90;;;;;;5043618;28;19964;-79
2023/03/14 09:57:57;;;;;;;;;;;5.80;99.90;;;;;;5026210;28;19944;-79
2023/03/14 10:00:25;;;;;;;;;;;5.80;99.90;;;;;;5042282;28;19909;-79
2023/03/14 10:02:55;;;;;;;;;;;5.80;99.90;;;;;;5043058;28;19909;-79
2023/03/14 10:05:22;;;;;;;;;;;5.70;99.90;;;;;;5026665;28;19916;-79
2023/03/14 10:07:47;;;;;;;;;;;5.70;99.90;;;;;;5044394;28;19909;-79
2023/03/14 10:10:15;;;;;;;;;;;5.60;99.90;;;;;;5044203;28;19924;-79
2023/03/14 10:12:41;;;;;;;;;;;5.60;99.90;;;;;;5026746;28;19920;-78
2023/03/14 10:15:09;;;;;;;;;;;5.50;99.90;;;;;;5045507;28;19991;-79
2023/03/14 10:17:38;;;;;;;;;;;5.50;99.90;;;;;;5044724;28;19932;-79
2023/03/14 10:20:05;;;;;;;;;;;5.50;99.90;;;;;;5026948;28;20354;-79
2023/03/14 10:22:31;;;;;;;;;;;5.40;99.90;;;;;;5044048;28;19959;-78
2023/03/14 10:25:01;;;;;;;;;;;5.40;99.90;;;;;;5043434;28;20289;-79
2023/03/14 10:27:31;;;;;;;;;;;5.40;99.90;;;;;;5043802;28;19909;-79
2023/03/14 10:29:58;;;;;;;;;;;5.40;99.90;;;;;;5044918;28;19913;-79
2023/03/14 10:32:31;;;;;;;;;;;5.40;99.90;;;;;;5043613;28;19909;-78
2023/03/14 10:35:08;;;;;;;;;;;5.30;99.90;;;;;;5041864;28;20323;-78
2023/03/14 10:37:34;;;;;;;;;;;5.30;99.90;;;;;;5043488;28;19921;-79
2023/03/14 10:40:05;;;;;;;;;;;5.30;99.90;;;;;;5025602;28;19952;-78
2023/03/14 10:42:41;;;;;;;;;;;5.20;99.90;;;;;;5024035;28;19909;-79
2023/03/14 10:45:27;;;;;;;;;;;5.20;99.90;;;;;;5042706;28;19909;-78
2023/03/14 10:47:52;;;;;;;;;;;5.10;99.90;;;;;;5042792;28;19913;-78
2023/03/14 10:50:23;;;;;;;;;;;5.00;99.90;;;;;;5025451;28;19924;-78
2023/03/14 10:52:50;;;;;;;;;;;5.00;99.90;;;;;;5041115;28;19909;-79
2023/03/14 10:55:16;;;;;;;;;;;5.00;99.90;;;;;;5044315;28;19976;-78
2023/03/14 10:57:42;;;;;;;;;;;5.00;99.90;;;;;;5026556;28;19960;-78
2023/03/14 11:00:19;;;;;;;;;;;5.00;99.90;;;;;;5044273;28;20400;-78
2023/03/14 11:02:53;;;;;;;;;;;4.90;99.90;;;;;;5044195;28;19909;-78
2023/03/14 11:05:25;;;;;;;;;;;4.90;99.90;;;;;;5043089;28;19955;-79
2023/03/14 11:07:52;;;;;;;;;;;4.90;99.90;;;;;;5058916;28;19916;-79
2023/03/14 11:10:34;;;;;;;;;;;4.90;99.90;;;;;;5042379;28;19920;-79
2023/03/14 11:13:06;;;;;;;;;;;4.90;99.90;;;;;;5043481;28;19944;-79
2023/03/14 11:15:41;;;;;;;;;;;4.80;99.90;;;;;;5058146;28;19913;-79
2023/03/14 11:18:31;;;;;;;;;;;4.70;99.90;;;;;;5041607;28;19909;-79
2023/03/14 11:21:00;;;;;;;;;;;4.70;99.90;;;;;;5040575;28;19909;-78
2023/03/14 11:23:36;;;;;;;;;;;4.70;99.90;;;;;;5040887;28;20335;-78
2023/03/14 11:26:16;;;;;;;;;;;4.60;99.90;;;;;;5021699;28;19909;-78
2023/03/14 11:28:47;;;;;;;;;;;4.60;99.90;;;;;;5042819;28;19923;-77
2023/03/14 11:31:13;;;;;;;;;;;4.50;99.90;;;;;;5041623;28;19913;-79
2023/03/14 11:33:44;;;;;;;;;;;4.40;99.90;;;;;;5040571;28;20044;-79
2023/03/14 11:36:11;;;;;;;;;;;4.40;99.90;;;;;;5039891;28;19909;-78
2023/03/14 11:38:47;;;;;;;;;;;4.40;99.90;;;;;;5021656;28;19924;-79
2023/03/14 11:41:19;;;;;;;;;;;4.40;99.90;;;;;;5039946;28;19910;-80
2023/03/14 11:43:52;;;;;;;;;;;4.40;99.90;;;;;;5022972;28;19913;-79
2023/03/14 11:46:21;;;;;;;;;;;4.40;99.90;;;;;;5022146;28;19909;-80
2023/03/14 11:48:56;;;;;;;;;;;4.40;99.90;;;;;;5038834;28;19909;-80
2023/03/14 11:51:28;;;;;;;;;;;4.50;99.90;;;;;;5039359;28;19914;-79
2023/03/14 11:54:23;;;;;;;;;;;4.50;99.90;;;;;;5021236;28;19909;-78
2023/03/14 11:57:01;;;;;;;;;;;4.50;99.90;;;;;;5019528;28;19940;-80
2023/03/14 11:59:29;;;;;;;;;;;4.60;99.90;;;;;;5065592;23;20389;-80
2023/03/14 12:02:00;;;;;;;;;;;4.80;99.90;;;;;;5037240;28;19909;-80
2023/03/14 12:04:41;;;;;;;;;;;4.90;99.90;;;;;;5036491;28;19970;-79
2023/03/14 12:07:12;;;;;;;;;;;5.00;99.90;;;;;;5036806;28;19913;-79
2023/03/14 12:09:38;;;;;;;;;;;5.10;99.90;;;;;;5055318;28;19909;-79
2023/03/14 12:12:05;;;;;;;;;;;5.10;99.90;;;;;;5038018;28;20015;-80
2023/03/14 12:14:33;;;;;;;;;;;5.10;99.90;;;;;;5055152;28;19915;-80
2023/03/14 12:17:03;;;;;;;;;;;5.10;99.90;;;;;;5053966;28;19916;-80
2023/03/14 12:19:31;;;;;;;;;;;5.10;99.90;;;;;;5054200;28;20403;-80
2023/03/14 12:21:58;;;;;;;;;;;5.10;99.90;;;;;;5054960;28;19916;-80
2023/03/14 12:24:30;;;;;;;;;;;5.20;99.90;;;;;;5036347;28;20380;-80
2023/03/14 12:26:56;;;;;;;;;;;5.40;99.90;;;;;;5054687;28;19912;-79
2023/03/14 12:29:23;;;;;;;;;;;5.60;99.90;;;;;;5036642;28;20046;-80
2023/03/14 12:32:06;;;;;;;;;;;5.70;99.90;;;;;;5020651;28;19916;-80
2023/03/14 12:34:32;;;;;;;;;;;5.90;99.90;;;;;;5054582;28;19963;-80
2023/03/14 12:36:58;;;;;;;;;;;6.00;99.90;;;;;;5036847;28;19948;-80
2023/03/14 12:39:38;;;;;;;;;;;6.10;99.90;;;;;;5037299;28;19916;-80
2023/03/14 12:42:07;;;;;;;;;;;6.20;99.90;;;;;;5054279;28;19920;-80
2023/03/14 12:44:32;;;;;;;;;;;6.30;99.90;;;;;;5054663;28;19963;-80
2023/03/14 12:47:20;;;;;;;;;;;6.40;99.90;;;;;;5054621;28;19912;-81
2023/03/14 12:49:48;;;;;;;;;;;6.60;99.90;;;;;;5038854;28;19927;-81
2023/03/14 12:52:15;;;;;;;;;;;6.60;99.90;;;;;;5060109;28;19909;-81
2023/03/14 12:55:02;;;;;;;;;;;6.70;99.90;;;;;;5043156;28;20003;-79
2023/03/14 12:57:33;;;;;;;;;;;6.80;99.90;;;;;;5041046;28;19947;-80
2023/03/14 13:00:00;;;;;;;;;;;7.00;99.90;;;;;;5057616;28;19917;-79
2023/03/14 13:02:25;;;;;;;;;;;7.20;99.90;;;;;;5058032;28;20387;-79
2023/03/14 13:05:05;;;;;;;;;;;7.30;99.90;;;;;;5040031;28;19909;-79
2023/03/14 13:07:32;;;;;;;;;;;7.30;99.90;;;;;;5040167;28;19909;-79
2023/03/14 13:10:01;;;;;;;;;;;7.40;99.90;;;;;;5057844;28;19966;-79
2023/03/14 13:12:29;;;;;;;;;;;7.40;99.90;;;;;;5057719;28;19999;-79
2023/03/14 13:14:57;;;;;;;;;;;7.40;99.90;;;;;;5058052;28;20360;-79
2023/03/14 13:17:26;;;;;;;;;;;7.40;99.90;;;;;;5039906;28;20003;-79
2023/03/14 13:20:00;;;;;;;;;;;7.40;99.90;;;;;;5057461;28;19909;-79
2023/03/14 13:22:31;;;;;;;;;;;7.40;99.90;;;;;;5057570;28;19915;-79
2023/03/14 13:25:02;;;;;;;;;;;7.30;99.90;;;;;;5058728;28;19952;-79
2023/03/14 13:27:29;;;;;;;;;;;7.30;99.90;;;;;;5058102;28;20253;-78
2023/03/14 13:29:55;;;;;;;;;;;7.30;99.90;;;;;;5039453;28;19920;-79
2023/03/14 13:32:22;;;;;;;;;;;7.30;99.90;;;;;;5022931;28;19913;-79
2023/03/14 13:34:48;;;;;;;;;;;7.30;99.90;;;;;;5039065;28;19909;-79
2023/03/14 13:37:23;;;;;;;;;;;7.30;99.90;;;;;;5057457;28;20317;-79
2023/03/14 13:39:55;;;;;;;;;;;7.30;99.90;;;;;;5057215;28;19909;-79
2023/03/14 13:42:21;;;;;;;;;;;7.30;99.90;;;;;;5057427;28;19909;-79
2023/03/14 13:44:47;;;;;;;;;;;7.30;99.90;;;;;;5039321;28;20331;-79
2023/03/14 13:47:17;;;;;;;;;;;7.30;99.90;;;;;;5022524;28;19967;-79
2023/03/14 13:49:43;;;;;;;;;;;7.30;99.90;;;;;;5056745;28;19912;-79
2023/03/14 13:52:27;;;;;;;;;;;7.30;99.90;;;;;;5057034;28;19916;-79
2023/03/14 13:54:53;;;;;;;;;;;7.30;99.90;;;;;;5057001;28;19916;-79
2023/03/14 13:57:19;;;;;;;;;;;7.30;99.90;;;;;;5057021;28;19940;-79
2023/03/14 13:59:57;;;;;;;;;;;7.40;99.90;;;;;;5056163;28;20407;-78
2023/03/14 14:02:24;;;;;;;;;;;7.40;99.90;;;;;;5039047;28;19985;-79
2023/03/14 14:04:50;;;;;;;;;;;7.40;99.90;;;;;;5038454;28;19999;-78
2023/03/14 14:07:18;;;;;;;;;;;7.40;99.90;;;;;;5038634;28;19956;-78
2023/03/14 14:09:53;;;;;;;;;;;7.40;99.90;;;;;;5038435;28;20015;-79
2023/03/14 14:12:30;;;;;;;;;;;7.40;99.90;;;;;;5056531;28;20023;-79
2023/03/14 14:14:58;;;;;;;;;;;7.40;99.90;;;;;;5056422;28;20410;-79
2023/03/14 14:17:26;;;;;;;;;;;7.40;99.90;;;;;;5038477;28;19916;-79
2023/03/14 14:19:51;;;;;;;;;;;7.40;99.90;;;;;;5056021;28;19916;-79
2023/03/14 14:22:17;;;;;;;;;;;7.40;99.90;;;;;;5056436;28;19909;-79
2023/03/14 14:24:43;;;;;;;;;;;7.40;99.90;;;;;;5056258;28;20269;-79
2023/03/14 14:27:12;;;;;;;;;;;7.40;99.90;;;;;;5056595;28;19917;-79
2023/03/14 14:29:37;;;;;;;;;;;7.40;99.90;;;;;;5038042;28;19915;-79
2023/03/14 14:32:14;;;;;;;;;;;7.40;99.90;;;;;;5021727;28;20436;-80